Time;durP1;ratioP1;P1;durP2;ratioP2;P2;SDS_P1;SDS_P2;PMS_P1;PMS_P2;Temp;Humidity;BMP_temperature;BMP_pressure;BME280_temperature;BME280_humidity;BME280_pressure;Samples;Min_cycle;Max_cycle;Signal;HPM_P1;HPM_P2
2021/03/24 00:03:28;;;;;;;21.95;12.68;;;;;;;8.20;77.10;101031.86;2859300;83;21172;-61
2021/03/24 00:07:31;;;;;;;24.63;14.78;;;;;;;8.17;77.13;101040.00;2859019;83;21127;-61
2021/03/24 00:11:37;;;;;;;20.88;13.68;;;;;;;8.06;76.75;101028.27;2859186;82;21175;-61
2021/03/24 00:15:39;;;;;;;15.70;11.18;;;;;;;7.94;76.91;101019.22;2858977;83;21152;-60
2021/03/24 00:19:42;;;;;;;21.60;13.58;;;;;;;7.90;77.69;101022.99;2859126;82;21163;-61
2021/03/24 00:23:46;;;;;;;25.92;16.57;;;;;;;7.99;77.89;101024.25;2859683;83;21155;-61
2021/03/24 00:27:51;;;;;;;23.47;13.72;;;;;;;8.05;77.88;101023.04;2859169;83;21175;-60
2021/03/24 00:31:54;;;;;;;22.00;16.00;;;;;;;8.10;77.65;101016.98;2858904;81;21132;-61
2021/03/24 00:35:57;;;;;;;26.02;16.55;;;;;;;8.07;77.26;101014.52;2857395;83;21148;-61
2021/03/24 00:40:00;;;;;;;24.00;15.20;;;;;;;8.06;77.41;101018.98;2856659;83;21156;-61
2021/03/24 00:44:04;;;;;;;21.97;15.70;;;;;;;8.00;77.32;101014.90;2855807;83;21152;-61
2021/03/24 00:48:15;;;;;;;;;;;;;;;7.98;77.55;101010.63;2858394;83;21136;-61
2021/03/24 00:52:18;;;;;;;20.82;14.05;;;;;;;7.97;77.68;101012.44;2855983;83;20187;-61
2021/03/24 00:56:23;;;;;;;22.50;16.32;;;;;;;7.92;77.68;101003.88;2855880;83;21179;-61
2021/03/24 01:00:31;;;;;;;23.83;15.20;;;;;;;7.93;77.92;101002.10;2855901;83;21166;-61
2021/03/24 01:04:34;;;;;;;18.55;15.75;;;;;;;7.93;78.01;100998.13;2855903;83;21124;-61
2021/03/24 01:08:37;;;;;;;22.60;15.00;;;;;;;7.95;78.08;101002.86;2855851;82;21128;-61
2021/03/24 01:12:40;;;;;;;29.60;19.80;;;;;;;7.99;78.05;101000.41;2855875;82;21140;-61
2021/03/24 01:16:43;;;;;;;21.75;14.20;;;;;;;8.02;78.09;100996.73;2855576;82;21188;-61
2021/03/24 01:20:47;;;;;;;20.77;15.55;;;;;;;8.00;78.03;101007.41;2855719;83;21220;-61
2021/03/24 01:24:53;;;;;;;22.02;14.90;;;;;;;8.02;78.23;101002.86;2855877;83;21171;-61
2021/03/24 01:28:59;;;;;;;21.77;14.38;;;;;;;8.09;78.18;101007.33;2856010;83;21171;-61
2021/03/24 01:33:02;;;;;;;20.35;15.08;;;;;;;8.09;77.97;101000.70;2855925;83;21177;-62
2021/03/24 01:37:07;;;;;;;22.17;16.70;;;;;;;8.14;78.16;100997.30;2855446;83;21172;-61
2021/03/24 01:41:10;;;;;;;19.23;12.95;;;;;;;8.19;77.94;101001.88;2855753;83;21559;-61
2021/03/24 01:45:22;;;;;;;18.40;12.68;;;;;;;8.18;77.68;100988.24;2856141;83;21184;-61
2021/03/24 01:49:30;;;;;;;25.55;16.37;;;;;;;8.17;77.63;100997.59;2855755;83;21160;-61
2021/03/24 01:53:37;;;;;;;15.18;12.05;;;;;;;8.13;77.68;100996.46;2855736;83;21156;-61
2021/03/24 01:57:46;;;;;;;15.08;12.68;;;;;;;8.15;77.67;100994.57;2855562;83;21140;-61
2021/03/24 02:01:49;;;;;;;21.70;14.98;;;;;;;8.21;77.90;101003.95;2856663;81;21147;-61
2021/03/24 02:05:55;;;;;;;18.20;13.08;;;;;;;8.26;77.57;101003.69;2856630;83;21199;-61
2021/03/24 02:10:14;;;;;;;20.10;13.95;;;;;;;8.22;77.50;101008.31;2855535;83;21167;-61
2021/03/24 02:14:29;;;;;;;22.07;14.50;;;;;;;8.23;77.40;101007.36;2856098;83;21163;-61
2021/03/24 02:18:35;;;;;;;19.85;15.18;;;;;;;8.02;77.28;101013.95;2855502;83;21167;-61
2021/03/24 02:22:43;;;;;;;14.90;11.78;;;;;;;7.92;78.15;101003.05;2856116;83;21179;-61
2021/03/24 02:27:15;;;;;;;14.73;10.63;;;;;;;7.97;78.33;101003.63;2855649;83;21174;-61
2021/03/24 02:31:22;;;;;;;20.50;15.93;;;;;;;8.02;78.47;100996.24;2829603;83;21570;-62
2021/03/24 02:35:32;;;;;;;17.27;12.13;;;;;;;8.04;78.23;100991.70;2829135;83;21168;-61
2021/03/24 02:39:37;;;;;;;20.97;13.98;;;;;;;7.96;78.23;100990.00;2855749;83;21141;-61
2021/03/24 02:43:42;;;;;;;17.37;12.58;;;;;;;7.85;78.58;100984.02;2830945;83;21152;-61
2021/03/24 02:47:47;;;;;;;17.77;12.28;;;;;;;7.75;79.02;100992.11;2861134;83;21131;-61
2021/03/24 02:51:50;;;;;;;18.12;12.93;;;;;;;7.67;79.41;100994.74;2861128;83;21171;-61
2021/03/24 02:56:00;;;;;;;15.97;12.73;;;;;;;7.71;79.72;101002.05;2861352;82;21188;-61
2021/03/24 03:00:07;;;;;;;18.02;13.00;;;;;;;7.77;79.67;101003.48;2861238;83;21179;-61
2021/03/24 03:04:32;;;;;;;20.30;15.65;;;;;;;7.83;79.65;101001.80;2861031;82;21565;-61
2021/03/24 03:08:46;;;;;;;15.68;10.23;;;;;;;7.90;79.35;101005.77;2863070;82;21191;-61
2021/03/24 03:13:03;;;;;;;26.10;18.77;;;;;;;7.89;79.21;101009.38;2863102;83;21152;-61
2021/03/24 03:17:19;;;;;;;20.20;13.72;;;;;;;7.80;78.80;101011.25;2859087;83;21167;-61
2021/03/24 03:21:27;;;;;;;15.40;11.38;;;;;;;7.65;79.54;101005.90;2861239;82;21156;-61
2021/03/24 03:25:34;;;;;;;14.53;11.25;;;;;;;7.61;79.94;100994.24;2861103;83;21161;-62
2021/03/24 03:29:42;;;;;;;17.87;12.60;;;;;;;7.57;80.32;100988.30;2861199;83;21131;-61
2021/03/24 03:33:49;;;;;;;19.52;12.80;;;;;;;7.47;80.41;100993.72;2861071;83;21444;-61
2021/03/24 03:37:55;;;;;;;13.72;11.85;;;;;;;7.47;80.80;100995.05;2861418;83;21120;-61
2021/03/24 03:42:02;;;;;;;16.07;12.07;;;;;;;7.47;80.95;100992.40;2861206;83;21167;-61
2021/03/24 03:46:09;;;;;;;17.70;11.70;;;;;;;7.42;80.83;100986.91;2806009;84;21165;-61
2021/03/24 03:50:20;;;;;;;19.90;12.53;;;;;;;7.36;81.01;100982.43;2784745;84;21181;-61
2021/03/24 03:54:42;;;;;;;18.52;11.55;;;;;;;7.41;81.23;100992.27;2808419;84;21477;-61
2021/03/24 03:59:15;;;;;;;16.23;11.90;;;;;;;7.40;81.49;100992.77;2808545;84;21590;-61
2021/03/24 04:03:24;;;;;;;17.35;12.35;;;;;;;7.43;81.05;100993.03;2809177;83;21176;-61
2021/03/24 04:07:41;;;;;;;14.28;11.70;;;;;;;7.47;81.65;100990.63;2810296;84;21196;-61
2021/03/24 04:11:48;;;;;;;21.35;14.25;;;;;;;7.57;80.89;100991.78;2777703;85;21615;-61
2021/03/24 04:15:58;;;;;;;21.15;13.13;;;;;;;7.47;80.53;100991.94;2760278;85;21624;-65
2021/03/24 04:20:05;;;;;;;16.57;13.10;;;;;;;7.36;80.72;100993.86;2729664;84;21163;-66
2021/03/24 04:24:19;;;;;;;23.80;13.13;;;;;;;7.34;80.96;100994.91;2728581;87;22262;-67
2021/03/24 04:28:26;;;;;;;23.27;13.05;;;;;;;7.33;81.07;100991.88;2771079;85;21144;-65
2021/03/24 04:32:29;;;;;;;16.05;12.80;;;;;;;7.40;81.63;100986.14;2778608;85;21143;-66
2021/03/24 04:36:39;;;;;;;26.62;15.70;;;;;;;7.45;81.24;100995.12;2776339;85;21160;-65
2021/03/24 04:40:52;;;;;;;21.65;15.83;;;;;;;7.47;80.74;100997.70;2771338;85;21171;-66
2021/03/24 04:44:57;;;;;;;17.87;13.40;;;;;;;7.39;80.78;101002.10;2763881;85;21197;-66
2021/03/24 04:49:08;;;;;;;20.90;15.38;;;;;;;7.29;80.81;101003.09;2822470;84;21156;-66
2021/03/24 04:53:15;;;;;;;24.77;16.60;;;;;;;7.22;81.31;101001.26;2823643;84;21144;-65
2021/03/24 04:57:24;;;;;;;18.77;13.60;;;;;;;7.27;81.60;101002.33;2824174;84;21197;-66
2021/03/24 05:01:35;;;;;;;22.87;16.48;;;;;;;7.29;81.27;101002.64;2823012;84;21141;-66
2021/03/24 05:06:07;;;;;;;21.62;15.98;;;;;;;7.29;81.77;101011.03;2823793;84;21177;-65
2021/03/24 05:10:27;;;;;;;23.60;15.25;;;;;;;7.32;81.71;101012.66;2754244;85;21209;-66
2021/03/24 05:14:41;;;;;;;26.93;16.37;;;;;;;7.29;81.68;101028.23;2767348;85;21606;-64
2021/03/24 05:18:51;;;;;;;19.12;12.78;;;;;;;7.33;81.82;101022.31;2752042;85;21129;-62
2021/03/24 05:22:54;;;;;;;17.50;13.32;;;;;;;7.36;81.83;101022.12;2757485;85;21268;-63
2021/03/24 05:27:12;;;;;;;19.48;13.25;;;;;;;7.38;81.72;101028.19;2755259;85;21220;-62
2021/03/24 05:31:22;;;;;;;19.50;14.55;;;;;;;7.39;81.57;101025.92;2742912;85;21188;-63
2021/03/24 05:35:47;;;;;;;27.73;17.00;;;;;;;7.28;81.53;101016.81;2744965;85;21189;-63
2021/03/24 05:39:51;;;;;;;25.20;16.15;;;;;;;7.31;82.10;101015.77;2735318;87;21168;-63
2021/03/24 05:44:24;;;;;;;23.67;15.88;;;;;;;7.34;81.69;101016.08;2735484;87;21152;-64
2021/03/24 05:48:58;;;;;;;28.67;18.55;;;;;;;7.33;81.48;101023.15;2735327;87;21205;-63
2021/03/24 05:53:29;;;;;;;30.92;17.27;;;;;;;7.37;81.76;101021.19;2735663;87;21164;-63
2021/03/24 05:58:15;;;;;;;23.60;16.05;;;;;;;7.42;81.52;101024.42;2732243;87;21221;-64
2021/03/24 06:03:01;;;;;;;23.77;16.60;;;;;;;7.39;81.25;101029.89;2751038;85;21166;-64
2021/03/24 06:07:35;;;;;;;25.52;15.00;;;;;;;7.36;81.64;101024.78;2765695;85;21186;-64
2021/03/24 06:11:49;;;;;;;24.70;15.48;;;;;;;7.38;82.02;101025.09;2771202;85;21194;-64
2021/03/24 06:16:20;;;;;;;22.93;16.97;;;;;;;7.42;81.84;101025.29;2771492;85;21158;-65
2021/03/24 06:20:57;;;;;;;27.20;18.15;;;;;;;7.51;82.07;101025.23;2771386;85;21161;-64
2021/03/24 06:25:28;;;;;;;23.60;18.02;;;;;;;7.62;81.50;101017.13;2771340;85;21197;-64
2021/03/24 06:29:56;;;;;;;24.77;19.42;;;;;;;7.65;81.09;101017.81;2771201;85;21150;-65
2021/03/24 06:34:41;;;;;;;25.95;20.20;;;;;;;7.63;81.04;101019.70;2771335;85;21174;-64
2021/03/24 06:39:00;;;;;;;29.52;20.60;;;;;;;7.63;81.31;101018.83;2771069;85;21576;-64
2021/03/24 06:43:27;;;;;;;40.43;19.23;;;;;;;7.67;81.28;101025.20;2771448;85;21673;-63
2021/03/24 06:47:35;;;;;;;33.97;19.97;;;;;;;7.72;81.14;101035.05;2771829;85;21209;-64
2021/03/24 06:52:17;;;;;;;24.32;16.30;;;;;;;7.78;81.06;101033.84;2771551;85;21415;-64
2021/03/24 06:56:57;;;;;;;28.25;20.02;;;;;;;7.82;80.76;101041.98;2771083;85;21174;-64
2021/03/24 07:01:20;;;;;;;28.55;18.73;;;;;;;7.87;80.43;101045.70;2751886;85;21170;-64
2021/03/24 07:05:54;;;;;;;25.72;18.10;;;;;;;7.89;80.61;101043.81;2771110;85;21178;-64
2021/03/24 07:10:14;;;;;;;31.62;18.25;;;;;;;7.93;80.54;101042.68;2771393;85;21439;-64
2021/03/24 07:14:53;;;;;;;32.90;19.23;;;;;;;7.98;80.43;101043.73;2771348;85;21170;-64
2021/03/24 07:19:41;;;;;;;32.03;20.90;;;;;;;8.05;80.19;101053.02;2770999;85;21130;-64
2021/03/24 07:24:24;;;;;;;26.93;18.17;;;;;;;8.13;80.20;101050.79;2770946;85;21612;-64
2021/03/24 07:29:09;;;;;;;25.37;20.02;;;;;;;8.24;79.97;101058.10;2771357;85;21138;-64
2021/03/24 07:33:40;;;;;;;26.30;17.45;;;;;;;8.34;79.44;101057.53;2771360;85;21178;-64
2021/03/24 07:38:11;;;;;;;36.63;22.52;;;;;;;8.42;79.15;101069.38;2748835;85;21403;-65
2021/03/24 07:42:47;;;;;;;34.08;21.77;;;;;;;8.50;78.71;101068.12;2771266;85;21150;-64
2021/03/24 07:47:15;;;;;;;32.33;19.20;;;;;;;8.54;78.98;101068.30;2770964;85;21162;-63
2021/03/24 07:51:47;;;;;;;33.48;23.73;;;;;;;8.57;78.46;101064.14;2771300;85;21161;-64
2021/03/24 07:56:15;;;;;;;37.50;21.37;;;;;;;8.52;77.98;101072.36;2770962;85;21206;-64
2021/03/24 08:01:03;;;;;;;34.50;21.75;;;;;;;8.54;78.51;101064.33;2762966;85;21170;-64
2021/03/24 08:05:35;;;;;;;26.85;18.73;;;;;;;8.60;78.26;101061.29;2771222;85;21687;-64
2021/03/24 08:10:02;;;;;;;27.13;18.40;;;;;;;8.66;78.25;101060.94;2765657;85;22264;-64
2021/03/24 08:14:16;;;;;;;34.20;22.62;;;;;;;8.75;78.10;101061.30;2763653;85;21173;-63
2021/03/24 08:19:04;;;;;;;31.20;20.35;;;;;;;8.89;77.50;101061.30;2739113;86;21180;-64
2021/03/24 08:23:36;;;;;;;26.68;17.73;;;;;;;8.97;76.59;101070.11;2755625;86;21173;-63
2021/03/24 08:28:13;;;;;;;30.37;19.87;;;;;;;9.08;76.18;101066.78;2755153;86;21157;-63
2021/03/24 08:32:38;;;;;;;26.68;18.98;;;;;;;9.16;76.46;101067.14;2755447;86;21161;-64
2021/03/24 08:37:22;;;;;;;27.75;17.75;;;;;;;9.26;75.61;101061.64;2755359;86;21174;-64
2021/03/24 08:41:56;;;;;;;30.43;18.80;;;;;;;9.29;74.73;101062.77;2755242;86;21129;-65
2021/03/24 08:46:29;;;;;;;31.70;19.67;;;;;;;9.33;74.45;101061.23;2759032;86;21184;-64
2021/03/24 08:50:40;;;;;;;30.60;19.77;;;;;;;9.51;75.22;101064.03;2758968;86;21184;-64
2021/03/24 08:55:10;;;;;;;34.70;21.97;;;;;;;9.76;74.57;101066.39;2759959;86;21212;-64
2021/03/24 08:59:22;;;;;;;27.73;20.45;;;;;;;9.93;72.98;101067.08;2759285;86;21709;-64
2021/03/24 09:03:56;;;;;;;29.52;18.35;;;;;;;10.07;72.84;101067.02;2758688;86;21169;-64
2021/03/24 09:08:23;;;;;;;27.35;19.57;;;;;;;10.18;71.23;101070.73;2754353;86;21689;-64
2021/03/24 09:12:34;;;;;;;27.60;20.32;;;;;;;10.24;70.61;101070.34;2735757;87;21172;-64
2021/03/24 09:17:16;;;;;;;25.65;17.57;;;;;;;10.27;70.02;101066.14;2735688;87;21610;-64
2021/03/24 09:21:23;;;;;;;31.07;19.87;;;;;;;10.33;69.04;101062.22;2735442;86;21177;-64
2021/03/24 09:25:40;;;;;;;29.10;19.50;;;;;;;10.42;70.05;101058.95;2735721;87;21203;-64
2021/03/24 09:30:06;;;;;;;31.57;22.65;;;;;;;10.46;68.29;101053.78;2735661;86;21141;-64
2021/03/24 09:34:34;;;;;;;30.95;19.75;;;;;;;10.52;68.77;101057.83;2691823;88;21200;-64
2021/03/24 09:38:41;;;;;;;30.23;21.52;;;;;;;10.55;67.75;101056.28;2757270;85;21176;-64
2021/03/24 09:42:51;;;;;;;34.27;22.45;;;;;;;10.53;67.51;101050.22;2735776;87;21507;-65
2021/03/24 09:46:56;;;;;;;33.92;24.30;;;;;;;10.63;68.50;101041.11;2735704;87;21639;-64
2021/03/24 09:51:13;;;;;;;32.33;24.20;;;;;;;10.68;67.04;101041.17;2736125;87;21167;-64
2021/03/24 09:55:29;;;;;;;26.20;19.37;;;;;;;10.69;66.01;101042.88;2736054;86;21141;-64
2021/03/24 09:59:48;;;;;;;33.05;23.22;;;;;;;10.72;65.84;101033.84;2735820;86;21223;-64
2021/03/24 10:03:56;;;;;;;34.30;21.10;;;;;;;10.78;66.47;101035.19;2735966;87;21207;-64
2021/03/24 10:08:07;;;;;;;33.40;23.70;;;;;;;10.97;65.53;101035.58;2740186;85;21220;-65
2021/03/24 10:12:47;;;;;;;36.83;23.42;;;;;;;11.12;66.22;101030.98;2765630;86;21201;-64
2021/03/24 10:16:56;;;;;;;28.62;20.85;;;;;;;11.25;65.79;101022.08;2769030;86;21229;-65
2021/03/24 10:21:27;;;;;;;33.53;22.77;;;;;;;11.40;64.18;101020.13;2765057;86;21578;-64
2021/03/24 10:25:46;;;;;;;26.80;21.50;;;;;;;11.48;63.17;101011.53;2769174;86;21205;-65
2021/03/24 10:30:14;;;;;;;29.05;18.62;;;;;;;11.60;64.06;101004.47;2765566;86;21635;-64
2021/03/24 10:34:42;;;;;;;27.95;19.23;;;;;;;11.63;63.12;100994.41;2769548;86;21176;-64
2021/03/24 10:39:14;;;;;;;33.67;20.92;;;;;;;11.74;63.07;100998.93;2740627;86;21607;-65
2021/03/24 10:43:28;;;;;;;33.50;22.85;;;;;;;11.86;62.92;100993.15;2760835;86;21173;-65
2021/03/24 10:47:41;;;;;;;29.93;21.33;;;;;;;11.92;61.86;100995.84;2764159;86;21137;-65
2021/03/24 10:52:03;;;;;;;29.80;21.93;;;;;;;11.82;60.74;100993.89;2768918;86;21160;-64
2021/03/24 10:56:29;;;;;;;31.45;24.77;;;;;;;11.79;60.03;100995.92;2769324;86;21177;-65
2021/03/24 11:00:39;;;;;;;35.23;23.50;;;;;;;11.71;60.00;100981.84;2765469;86;21706;-65
2021/03/24 11:05:08;;;;;;;40.73;27.48;;;;;;;11.67;60.44;100979.05;2769313;86;21211;-64
2021/03/24 11:09:16;;;;;;;35.68;24.57;;;;;;;11.65;61.17;100976.48;2769595;86;21160;-65
2021/03/24 11:13:30;;;;;;;29.75;24.25;;;;;;;11.71;61.07;100971.19;2769217;86;21184;-65
2021/03/24 11:17:39;;;;;;;30.45;25.75;;;;;;;11.78;61.69;100975.07;2765727;85;21201;-65
2021/03/24 11:22:16;;;;;;;39.33;28.25;;;;;;;11.85;60.87;100968.80;2769266;86;21152;-65
2021/03/24 11:26:38;;;;;;;;;;;;;;;11.84;60.19;100964.42;2771651;86;21193;-65
2021/03/24 11:30:46;;;;;;;36.42;25.05;;;;;;;11.95;61.24;100962.27;2769200;86;20180;-65
2021/03/24 11:34:56;;;;;;;47.08;28.35;;;;;;;12.04;60.13;100969.61;2765620;86;21751;-65
2021/03/24 11:39:17;;;;;;;39.48;27.55;;;;;;;12.05;61.30;100961.97;2765379;86;21153;-65
2021/03/24 11:43:24;;;;;;;42.30;28.27;;;;;;;12.03;59.53;100963.91;2765613;86;21172;-65
2021/03/24 11:47:49;;;;;;;40.17;29.95;;;;;;;12.06;60.49;100954.34;2769322;86;21183;-65
2021/03/24 11:52:23;;;;;;;47.15;30.60;;;;;;;12.00;59.82;100958.79;2769275;86;21200;-66
2021/03/24 11:56:50;;;;;;;42.55;29.30;;;;;;;11.83;59.10;100946.27;2765268;86;21241;-65
2021/03/24 12:01:26;;;;;;;48.78;31.15;;;;;;;11.91;60.54;100946.16;2769193;86;21150;-65
2021/03/24 12:06:05;;;;;;;46.65;30.88;;;;;;;12.06;59.99;100932.14;2769381;86;21156;-65
2021/03/24 12:10:32;;;;;;;53.10;34.67;;;;;;;12.09;59.98;100931.92;2765311;86;21184;-65
2021/03/24 12:14:58;;;;;;;46.88;30.50;;;;;;;12.21;59.48;100927.45;2769441;86;21728;-65
2021/03/24 12:19:01;;;;;;;48.55;31.65;;;;;;;12.28;59.85;100919.31;2814773;83;21182;-65
2021/03/24 12:23:05;;;;;;;42.03;28.45;;;;;;;12.34;59.69;100912.65;2821118;84;21171;-65
2021/03/24 12:27:16;;;;;;;42.62;30.02;;;;;;;12.34;58.75;100913.48;2820954;84;21195;-66
2021/03/24 12:31:22;;;;;;;40.58;30.45;;;;;;;12.40;59.39;100909.02;2820688;84;21619;-65
2021/03/24 12:35:27;;;;;;;42.90;30.50;;;;;;;12.43;58.53;100906.09;2820999;84;21163;-65
2021/03/24 12:39:35;;;;;;;39.27;29.85;;;;;;;12.53;58.94;100906.67;2820722;84;21798;-65
2021/03/24 12:43:42;;;;;;;38.28;27.17;;;;;;;12.67;58.65;100902.41;2820952;84;21158;-65
2021/03/24 12:47:49;;;;;;;36.55;27.73;;;;;;;12.68;57.91;100901.44;2820902;84;21182;-65
2021/03/24 12:52:36;;;;;;;34.80;27.82;;;;;;;12.73;57.20;100896.20;2843697;83;21205;-65
2021/03/24 12:57:09;;;;;;;40.78;29.77;;;;;;;12.84;57.69;100892.19;2849989;83;21162;-65
2021/03/24 13:01:57;;;;;;;42.08;27.62;;;;;;;13.05;58.25;100884.71;2847204;83;21122;-65
2021/03/24 13:06:09;;;;;;;42.33;29.67;;;;;;;13.21;57.15;100880.27;2765899;84;21186;-65
2021/03/24 13:10:53;;;;;;;48.45;29.75;;;;;;;13.32;57.59;100870.87;2789696;85;21561;-65
2021/03/24 13:15:20;;;;;;;41.73;30.57;;;;;;;13.32;58.62;100870.01;2766100;85;21518;-65
2021/03/24 13:19:47;;;;;;;41.70;31.20;;;;;;;13.26;56.95;100860.20;2819697;84;21220;-65
2021/03/24 13:24:28;;;;;;;56.37;33.95;;;;;;;13.22;56.85;100863.26;2739499;86;21168;-65
2021/03/24 13:29:16;;;;;;;44.25;29.27;;;;;;;13.19;57.23;100862.19;2791167;84;21134;-65
2021/03/24 13:34:06;;;;;;;49.38;32.13;;;;;;;13.24;57.57;100858.16;2828095;84;21681;-65
2021/03/24 13:38:47;;;;;;;46.65;30.95;;;;;;;13.23;58.35;100855.13;2820980;84;21200;-68
2021/03/24 13:43:07;;;;;;;40.65;31.48;;;;;;;13.29;59.18;100853.77;2799333;82;21164;-66
2021/03/24 13:47:20;;;;;;;44.73;32.28;;;;;;;13.46;58.71;100848.34;2794104;84;21191;-67
2021/03/24 13:51:33;;;;;;;39.90;30.72;;;;;;;13.60;58.03;100844.99;2805180;84;21574;-66
2021/03/24 13:56:07;;;;;;;38.78;30.32;;;;;;;13.75;57.77;100848.98;2769692;84;21190;-67
2021/03/24 14:00:31;;;;;;;45.00;30.72;;;;;;;13.76;57.61;100847.18;2740795;86;21176;-68
2021/03/24 14:04:59;;;;;;;47.60;31.68;;;;;;;13.78;56.99;100846.55;2780761;84;21194;-64
2021/03/24 14:09:30;;;;;;;41.40;31.33;;;;;;;13.82;57.96;100840.81;2780676;85;21180;-68
2021/03/24 14:13:55;;;;;;;43.25;30.00;;;;;;;13.91;58.45;100841.84;2780780;85;21196;-68
2021/03/24 14:18:21;;;;;;;41.85;32.38;;;;;;;13.79;55.08;100838.41;2776232;85;21184;-64
2021/03/24 14:22:35;;;;;;;42.43;32.73;;;;;;;13.63;55.88;100830.02;2774472;85;21603;-69
2021/03/24 14:26:43;;;;;;;43.58;31.68;;;;;;;13.52;57.54;100826.44;2785406;83;21202;-69
2021/03/24 14:31:25;;;;;;;42.50;29.92;;;;;;;13.65;58.45;100828.06;2876072;82;21124;-67
2021/03/24 14:35:35;;;;;;;42.62;31.23;;;;;;;13.73;58.03;100818.88;2778152;85;21822;-63
2021/03/24 14:39:44;;;;;;;43.28;30.30;;;;;;;13.63;56.79;100824.67;2778021;85;21160;-64
2021/03/24 14:44:10;;;;;;;45.92;32.40;;;;;;;13.40;57.20;100814.94;2776901;85;21169;-64
2021/03/24 14:48:53;;;;;;;47.98;34.63;;;;;;;13.18;58.36;100811.08;2778310;85;21145;-63
2021/03/24 14:53:06;;;;;;;46.73;33.53;;;;;;;13.05;59.10;100824.11;2778203;85;21401;-64
2021/03/24 14:57:29;;;;;;;50.92;34.23;;;;;;;12.98;60.88;100821.14;2778341;85;21193;-64
2021/03/24 15:01:46;;;;;;;52.80;35.98;;;;;;;12.91;61.13;100820.44;2777836;84;21180;-64
2021/03/24 15:06:00;;;;;;;42.23;29.70;;;;;;;12.82;59.24;100818.05;2777999;85;21205;-64
2021/03/24 15:10:28;;;;;;;46.95;32.75;;;;;;;12.80;60.39;100816.00;2778313;85;21177;-64
2021/03/24 15:19:32;;;;;;;45.60;34.18;;;;;;;12.72;59.70;100808.62;2651602;88;21151;-64
2021/03/24 15:23:57;;;;;;;47.67;32.40;;;;;;;12.62;59.26;100814.34;2682412;88;21199;-64
2021/03/24 15:28:05;;;;;;;49.95;33.83;;;;;;;12.52;59.86;100810.25;2730766;87;21468;-64
2021/03/24 15:32:22;;;;;;;46.60;32.00;;;;;;;12.45;60.84;100812.56;2729411;86;21244;-64
2021/03/24 15:36:50;;;;;;;51.83;35.65;;;;;;;12.41;61.83;100811.98;2729740;87;21208;-64
2021/03/24 15:41:34;;;;;;;48.30;35.28;;;;;;;12.42;60.45;100809.68;2730797;87;21194;-64
2021/03/24 15:45:45;;;;;;;51.15;33.05;;;;;;;12.48;60.21;100808.34;2731184;87;21183;-64
2021/03/24 15:50:16;;;;;;;45.90;33.50;;;;;;;12.58;60.13;100807.09;2730814;87;21220;-64
2021/03/24 15:54:37;;;;;;;51.90;37.80;;;;;;;12.60;60.10;100809.15;2730767;87;21508;-64
2021/03/24 15:59:14;;;;;;;62.27;42.70;;;;;;;12.57;60.77;100808.04;2730501;87;28944;-64
2021/03/24 16:03:29;;;;;;;50.17;34.18;;;;;;;12.57;61.74;100804.04;2729661;87;21176;-63
2021/03/24 16:07:43;;;;;;;54.77;35.35;;;;;;;12.51;59.90;100803.22;2728590;87;21187;-63
2021/03/24 16:12:20;;;;;;;47.98;34.30;;;;;;;12.43;60.64;100798.03;2727581;87;21184;-65
2021/03/24 16:16:31;;;;;;;58.02;37.83;;;;;;;12.31;63.35;100807.02;2728207;87;21200;-63
2021/03/24 16:21:03;;;;;;;57.93;39.33;;;;;;;12.17;64.05;100800.62;2728137;87;21211;-64
2021/03/24 16:25:38;;;;;;;48.70;32.25;;;;;;;12.17;62.33;100799.28;2728170;87;21209;-64
2021/03/24 16:30:09;;;;;;;52.23;35.10;;;;;;;12.14;61.00;100787.89;2690763;88;21198;-64
2021/03/24 16:34:46;;;;;;;44.85;34.15;;;;;;;12.11;61.26;100791.31;2717099;87;21234;-65
2021/03/24 16:39:27;;;;;;;53.48;36.15;;;;;;;12.12;63.10;100796.51;2716996;87;21155;-64
2021/03/24 16:44:26;;;;;;;41.45;28.98;;;;;;;12.11;65.01;100800.15;2717291;87;21196;-63
2021/03/24 16:48:48;;;;;;;65.57;45.12;;;;;;;12.11;64.62;100793.98;2710003;87;21183;-67
2021/03/24 16:53:16;;;;;;;48.13;34.30;;;;;;;12.21;63.95;100791.42;2715969;87;21155;-63
2021/03/24 16:57:49;;;;;;;45.52;33.83;;;;;;;12.27;65.03;100797.58;2716082;87;21148;-64
2021/03/24 17:02:22;;;;;;;55.30;38.48;;;;;;;12.35;65.07;100796.46;2692077;86;21192;-64
2021/03/24 17:06:31;;;;;;;64.58;45.65;;;;;;;12.30;65.05;100792.50;2714352;87;21213;-64
2021/03/24 17:10:51;;;;;;;82.22;55.17;;;;;;;12.27;64.82;100790.91;2716331;87;21184;-64
2021/03/24 17:15:34;;;;;;;95.25;60.65;;;;;;;12.21;64.86;100785.59;2716507;87;21157;-63
2021/03/24 17:20:04;;;;;;;89.25;60.45;;;;;;;12.20;64.83;100799.06;2715601;87;21238;-63
2021/03/24 17:24:40;;;;;;;87.92;57.20;;;;;;;12.12;63.87;100803.17;2676501;88;21221;-62
2021/03/24 17:28:45;;;;;;;72.90;47.25;;;;;;;12.03;63.51;100803.93;2760492;86;21199;-63
2021/03/24 17:33:05;;;;;;;79.50;51.45;;;;;;;11.96;62.62;100804.00;2760610;86;21159;-65
2021/03/24 17:37:30;;;;;;;82.10;55.05;;;;;;;11.92;62.59;100808.75;2759888;86;21155;-65
2021/03/24 17:41:41;;;;;;;62.80;44.40;;;;;;;11.87;62.57;100806.91;2738323;86;21197;-70
2021/03/24 17:45:51;;;;;;;65.20;41.90;;;;;;;11.81;62.54;100812.27;2736315;85;21639;-67
2021/03/24 17:49:57;;;;;;;57.95;40.40;;;;;;;11.77;62.63;100811.29;2757940;86;21137;-68
2021/03/24 17:54:25;;;;;;;59.67;41.15;;;;;;;11.73;62.78;100808.51;2722355;86;21381;-69
2021/03/24 17:58:40;;;;;;;63.48;44.80;;;;;;;11.66;63.15;100810.30;2722123;86;21189;-67
2021/03/24 18:03:05;;;;;;;57.05;37.80;;;;;;;11.56;63.49;100810.67;2713403;87;22315;-67
2021/03/24 18:07:36;;;;;;;52.30;36.77;;;;;;;11.48;63.79;100806.41;2684259;88;21157;-68
2021/03/24 18:11:48;;;;;;;71.20;45.08;;;;;;;11.43;64.09;100806.28;2694968;88;21487;-68
2021/03/24 18:15:51;;;;;;;76.00;51.08;;;;;;;11.40;64.30;100805.70;2694171;87;21184;-67
2021/03/24 18:20:04;;;;;;;65.50;42.25;;;;;;;11.35;64.32;100803.84;2702873;87;21206;-68
2021/03/24 18:24:02;;;;;;;62.43;39.40;;;;;;;11.29;64.05;100807.35;2703639;87;22240;-68
2021/03/24 18:28:16;;;;;;;66.60;46.40;;;;;;;11.20;64.08;100814.73;2703746;87;21177;-69
2021/03/24 18:32:24;;;;;;;64.45;41.35;;;;;;;11.11;64.25;100810.95;2703608;88;21173;-69
2021/03/24 18:36:30;;;;;;;51.83;39.58;;;;;;;11.01;64.21;100809.94;2703438;87;21194;-68
2021/03/24 18:40:35;;;;;;;61.70;46.53;;;;;;;10.91;64.38;100799.13;2703519;88;21204;-68
2021/03/24 18:44:42;;;;;;;69.50;48.83;;;;;;;10.80;65.00;100804.39;2703868;88;21170;-68
2021/03/24 18:48:53;;;;;;;74.25;48.40;;;;;;;10.71;65.31;100799.31;2703421;88;21216;-68
2021/03/24 18:53:00;;;;;;;92.40;60.95;;;;;;;10.62;65.73;100799.52;2702906;88;21142;-68
2021/03/24 18:57:20;;;;;;;102.00;64.63;;;;;;;10.57;66.15;100805.63;2700699;88;21222;-68
2021/03/24 19:01:28;;;;;;;91.30;64.17;;;;;;;10.55;66.30;100804.89;2703399;88;21153;-69
2021/03/24 19:05:34;;;;;;;96.87;67.87;;;;;;;10.48;66.63;100807.15;2684908;88;21603;-68
2021/03/24 19:09:41;;;;;;;122.50;82.70;;;;;;;10.41;67.08;100805.42;2703029;88;21786;-68
2021/03/24 19:13:45;;;;;;;102.32;65.12;;;;;;;10.34;67.42;100808.13;2699651;88;21173;-69
2021/03/24 19:17:59;;;;;;;122.92;76.37;;;;;;;10.26;67.86;100813.17;2702278;88;21224;-68
2021/03/24 19:22:03;;;;;;;112.77;73.67;;;;;;;10.17;68.19;100809.83;2703208;88;21203;-68
2021/03/24 19:26:21;;;;;;;117.95;73.47;;;;;;;10.10;68.11;100818.25;2674722;88;21204;-68
2021/03/24 19:30:32;;;;;;;103.45;73.07;;;;;;;10.01;67.85;100809.59;2703384;88;21231;-66
2021/03/24 19:34:36;;;;;;;128.70;81.22;;;;;;;9.90;67.96;100805.05;2704107;87;21185;-66
2021/03/24 19:38:52;;;;;;;105.83;68.25;;;;;;;9.82;68.51;100806.08;2702402;88;21588;-66
2021/03/24 19:42:56;;;;;;;91.82;61.90;;;;;;;9.73;69.24;100799.59;2658789;88;21165;-66
2021/03/24 19:47:22;;;;;;;111.15;72.78;;;;;;;9.61;69.95;100800.45;2653398;89;21146;-66
2021/03/24 19:51:27;;;;;;;;;;;;;;;9.50;70.44;100795.42;2655897;88;21162;-65